Time;durP1;ratioP1;P1;durP2;ratioP2;P2;SDS_P1;SDS_P2;PMS_P1;PMS_P2;Temp;Humidity;BMP_temperature;BMP_pressure;BME280_temperature;BME280_humidity;BME280_pressure;Samples;Min_cycle;Max_cycle;Signal;HPM_P1;HPM_P2
2022/06/10 00:00:25;;;;;;;10.18;2.95;;;13.70;99.90;;;;;;5054661;28;20055;-68
2022/06/10 00:02:51;;;;;;;9.02;3.25;;;13.50;99.90;;;;;;5066533;28;20048;-69
2022/06/10 00:05:20;;;;;;;9.45;2.92;;;13.50;99.90;;;;;;5053752;28;20403;-71
2022/06/10 00:07:46;;;;;;;13.63;2.95;;;13.60;99.90;;;;;;5035749;28;20033;-68
2022/06/10 00:10:14;;;;;;;6.82;2.75;;;13.60;99.90;;;;;;5034544;28;20040;-69
2022/06/10 00:12:40;;;;;;;10.43;2.70;;;13.80;99.90;;;;;;5052267;28;20395;-69
2022/06/10 00:15:07;;;;;;;10.15;2.42;;;13.40;99.90;;;;;;5052392;28;20047;-69
2022/06/10 00:17:33;;;;;;;7.90;2.70;;;13.70;99.90;;;;;;5052300;28;20572;-69
2022/06/10 00:19:59;;;;;;;7.47;3.40;;;;;;;;;;5034819;28;20044;-70
2022/06/10 00:22:25;;;;;;;9.25;2.80;;;;;;;;;;5053747;28;20044;-70
2022/06/10 00:24:51;;;;;;;7.15;2.58;;;13.40;99.90;;;;;;5039106;28;20041;-69
2022/06/10 00:27:18;;;;;;;7.35;3.28;;;13.40;99.90;;;;;;5053822;28;20113;-69
2022/06/10 00:29:44;;;;;;;9.75;2.90;;;;;;;;;;5034773;28;20037;-71
2022/06/10 00:32:10;;;;;;;7.30;2.67;;;;;;;;;;5035309;28;20048;-71
2022/06/10 00:34:36;;;;;;;16.48;4.18;;;;;;;;;;5053188;28;20044;-71
2022/06/10 00:37:04;;;;;;;11.63;3.63;;;13.50;99.90;;;;;;5053096;28;20063;-70
2022/06/10 00:39:30;;;;;;;8.60;2.60;;;13.40;99.90;;;;;;5051790;28;20045;-69
2022/06/10 00:41:55;;;;;;;11.68;4.40;;;13.60;99.90;;;;;;5064469;28;20402;-68
2022/06/10 00:44:52;;;;;;;10.35;2.83;;;13.40;99.90;;;;;;5037808;28;20383;-69
2022/06/10 00:47:17;;;;;;;13.80;3.67;;;13.30;99.90;;;;;;5035037;28;20494;-69
2022/06/10 00:49:49;;;;;;;7.55;2.53;;;13.40;99.90;;;;;;5034143;28;20056;-69
2022/06/10 00:52:30;;;;;;;11.75;2.75;;;13.40;99.90;;;;;;5053044;28;20154;-69
2022/06/10 00:54:57;;;;;;;9.23;3.25;;;13.30;99.90;;;;;;5053095;28;20083;-69
2022/06/10 00:57:31;;;;;;;14.43;3.17;;;13.20;99.90;;;;;;5051355;28;20063;-69
2022/06/10 01:00:03;;;;;;;14.52;3.90;;;13.20;99.90;;;;;;5051671;28;20040;-69
2022/06/10 01:02:31;;;;;;;15.00;3.30;;;13.30;99.90;;;;;;5072009;28;20060;-69
2022/06/10 01:04:58;;;;;;;9.70;3.00;;;13.30;99.90;;;;;;5088267;28;20045;-69
2022/06/10 01:07:32;;;;;;;9.00;3.47;;;13.30;99.90;;;;;;5054405;28;20479;-68
2022/06/10 01:10:01;;;;;;;8.27;2.90;;;13.20;99.90;;;;;;5071713;28;20055;-69
2022/06/10 01:12:29;;;;;;;8.48;3.40;;;13.30;99.90;;;;;;5072180;28;20093;-69
2022/06/10 01:15:12;;;;;;;9.32;3.00;;;13.10;99.90;;;;;;5054257;28;20066;-69
2022/06/10 01:18:06;;;;;;;9.50;3.40;;;13.20;99.90;;;;;;5052760;28;20387;-69
2022/06/10 01:20:45;;;;;;;7.72;2.80;;;12.90;99.90;;;;;;5071278;28;20045;-69
2022/06/10 01:23:26;;;;;;;9.25;3.25;;;13.00;99.90;;;;;;5053882;28;20518;-69
2022/06/10 01:25:52;;;;;;;9.10;3.08;;;;;;;;;;5053990;28;20045;-71
2022/06/10 01:28:48;;;;;;;10.88;3.05;;;13.10;99.90;;;;;;5053895;28;20039;-69
2022/06/10 01:31:37;;;;;;;13.27;3.47;;;12.80;99.90;;;;;;5053367;28;20174;-69
2022/06/10 01:34:14;;;;;;;11.48;3.58;;;13.00;99.90;;;;;;5070299;28;20042;-69
2022/06/10 01:37:08;;;;;;;8.15;3.33;;;12.80;99.90;;;;;;5035406;28;20437;-69
2022/06/10 01:39:59;;;;;;;10.02;3.85;;;12.90;99.90;;;;;;5033176;28;20475;-69
2022/06/10 01:42:33;;;;;;;8.27;3.45;;;12.80;99.90;;;;;;5033950;28;20053;-70
2022/06/10 01:45:12;;;;;;;10.52;3.65;;;12.80;99.90;;;;;;5053187;28;20090;-68
2022/06/10 01:48:14;;;;;;;10.48;3.13;;;12.80;99.90;;;;;;5017440;28;20037;-69
2022/06/10 01:50:49;;;;;;;8.35;3.15;;;12.70;99.90;;;;;;5022512;28;20053;-68
2022/06/10 01:53:27;;;;;;;8.15;3.50;;;12.70;99.90;;;;;;5037325;28;20029;-70
2022/06/10 01:56:00;;;;;;;5.10;2.85;;;12.60;99.90;;;;;;5033013;28;20487;-69
2022/06/10 01:58:38;;;;;;;;;;;12.80;99.90;;;;;;5017705;28;20033;-69
2022/06/10 02:01:10;;;;;;;4.68;2.83;;;12.70;99.90;;;;;;5032704;28;19932;-71
2022/06/10 02:03:45;;;;;;;8.30;3.20;;;12.70;99.90;;;;;;5051143;28;20418;-69
2022/06/10 02:06:30;;;;;;;11.00;3.28;;;12.50;99.90;;;;;;5033149;28;20384;-69
2022/06/10 02:09:00;;;;;;;9.07;3.15;;;12.60;99.90;;;;;;5050754;28;20221;-67
2022/06/10 02:11:27;;;;;;;7.22;3.47;;;12.60;99.90;;;;;;5051320;28;20045;-69
2022/06/10 02:14:02;;;;;;;13.30;3.85;;;12.60;99.90;;;;;;5034179;28;20029;-69
2022/06/10 02:16:31;;;;;;;7.90;3.55;;;12.50;99.90;;;;;;5051251;28;20041;-69
2022/06/10 02:19:25;;;;;;;5.80;3.75;;;12.50;99.90;;;;;;5032767;28;20422;-69
2022/06/10 02:21:51;;;;;;;13.15;5.15;;;;;;;;;;5016710;28;20049;-71
2022/06/10 02:24:17;;;;;;;11.93;3.92;;;;;;;;;;5032837;28;20044;-70
2022/06/10 02:26:45;;;;;;;8.63;3.38;;;12.40;99.90;;;;;;5033154;28;20044;-69
2022/06/10 02:29:32;;;;;;;8.57;2.75;;;12.50;99.90;;;;;;5035862;28;20388;-69
2022/06/10 02:31:59;;;;;;;6.65;2.95;;;12.50;99.90;;;;;;5033763;28;20174;-69
2022/06/10 02:34:27;;;;;;;16.70;4.68;;;12.50;99.90;;;;;;5034134;28;20067;-69
2022/06/10 02:37:16;;;;;;;8.70;3.47;;;12.50;99.90;;;;;;5032848;28;20102;-69
2022/06/10 02:40:15;;;;;;;10.45;3.92;;;12.70;99.90;;;;;;5031991;28;20048;-69
2022/06/10 02:43:17;;;;;;;9.70;3.80;;;12.40;99.90;;;;;;5032796;28;20090;-69
2022/06/10 02:45:51;;;;;;;7.13;3.28;;;12.50;99.90;;;;;;5039985;28;20135;-70
2022/06/10 02:48:34;;;;;;;12.82;3.50;;;12.50;99.90;;;;;;5032508;28;20553;-70
2022/06/10 02:51:00;;;;;;;;;;;12.70;99.90;;;;;;5050254;28;20052;-69
2022/06/10 02:53:26;;;;;;;9.23;3.75;;;12.50;99.90;;;;;;5034214;28;19924;-69
2022/06/10 02:55:52;;;;;;;14.60;3.47;;;12.50;99.90;;;;;;5044691;28;20411;-69
2022/06/10 03:01:26;;;;;;;24.15;4.85;;;12.50;99.90;;;;;;5051745;28;20044;-70
2022/06/10 03:03:57;;;;;;;9.30;3.53;;;12.40;99.90;;;;;;5052567;28;20040;-70
2022/06/10 03:06:38;;;;;;;12.30;3.60;;;12.40;99.90;;;;;;5071173;28;20149;-69
2022/06/10 03:09:14;;;;;;;12.35;4.20;;;12.40;99.90;;;;;;5055861;28;20055;-71
2022/06/10 03:12:11;;;;;;;6.20;3.20;;;12.40;99.90;;;;;;5076298;28;20506;-71
2022/06/10 03:14:40;;;;;;;10.18;3.05;;;;;;;;;;5056866;28;20074;-69
2022/06/10 03:17:15;;;;;;;9.30;3.75;;;12.40;99.90;;;;;;5056952;28;20037;-68
2022/06/10 03:19:52;;;;;;;11.32;3.50;;;12.30;99.90;;;;;;5073800;28;20125;-70
2022/06/10 03:22:30;;;;;;;11.55;3.25;;;12.40;99.90;;;;;;5056220;28;20043;-69
2022/06/10 03:25:19;;;;;;;7.50;2.70;;;12.50;99.90;;;;;;5036556;28;20418;-69
2022/06/10 03:28:01;;;;;;;7.50;3.30;;;12.30;99.90;;;;;;5054341;28;20044;-69
2022/06/10 03:30:33;;;;;;;9.07;3.67;;;12.50;99.90;;;;;;5036512;28;20502;-69
2022/06/10 03:33:13;;;;;;;11.30;3.97;;;12.40;99.90;;;;;;5036076;28;20076;-69
2022/06/10 03:35:47;;;;;;;12.43;4.35;;;12.50;99.90;;;;;;5036276;28;20037;-68
2022/06/10 03:38:13;;;;;;;11.73;3.60;;;12.40;99.90;;;;;;5036003;28;20067;-67
2022/06/10 03:40:39;;;;;;;7.47;2.97;;;;;;;;;;5035239;28;20068;-69
2022/06/10 03:43:08;;;;;;;8.35;3.05;;;12.40;99.90;;;;;;5053714;28;20072;-68
2022/06/10 03:45:46;;;;;;;7.35;3.17;;;12.50;99.90;;;;;;5036030;28;20128;-68
2022/06/10 03:48:16;;;;;;;11.23;3.05;;;12.30;99.90;;;;;;5053862;28;20033;-68
2022/06/10 03:50:43;;;;;;;7.28;3.15;;;;;;;;;;5048061;28;20051;-69
2022/06/10 03:53:15;;;;;;;12.45;3.38;;;12.50;99.90;;;;;;5073474;28;20502;-69
2022/06/10 03:55:41;;;;;;;9.75;3.55;;;;;;;;;;5055799;28;20123;-69
2022/06/10 03:58:07;;;;;;;9.85;3.42;;;12.70;99.90;;;;;;5055639;28;20040;-70
2022/06/10 04:00:34;;;;;;;9.57;3.25;;;;;;;;;;5055143;28;20124;-70
2022/06/10 04:03:00;;;;;;;7.15;3.42;;;;;;;;;;5055835;28;20052;-69
2022/06/10 04:05:26;;;;;;;11.77;3.40;;;;;;;;;;5055458;28;20041;-69
2022/06/10 04:07:52;;;;;;;10.77;3.65;;;13.00;99.90;;;;;;5038755;28;20490;-70
2022/06/10 04:10:23;;;;;;;9.73;3.10;;;12.90;99.90;;;;;;5068958;28;20029;-70
2022/06/10 04:12:49;;;;;;;7.15;2.65;;;13.00;99.90;;;;;;5053501;28;20049;-69
2022/06/10 04:15:15;;;;;;;10.82;3.95;;;;;;;;;;5053499;28;20399;-69
2022/06/10 04:17:44;;;;;;;11.82;3.58;;;13.10;99.90;;;;;;5018674;28;20072;-69
2022/06/10 04:20:22;;;;;;;12.90;3.38;;;13.20;99.90;;;;;;5034313;28;20098;-69
2022/06/10 04:22:47;;;;;;;9.77;3.03;;;13.20;99.90;;;;;;5035239;28;20041;-69
2022/06/10 04:25:13;;;;;;;8.98;3.08;;;13.30;99.90;;;;;;5035287;28;20475;-69
2022/06/10 04:27:40;;;;;;;12.55;3.28;;;13.30;99.90;;;;;;5035290;28;20048;-68
2022/06/10 04:30:08;;;;;;;11.30;3.05;;;13.20;99.90;;;;;;5037121;28;20051;-72
2022/06/10 04:32:34;;;;;;;13.98;3.92;;;13.50;99.90;;;;;;5067175;28;20495;-70
2022/06/10 04:34:59;;;;;;;14.40;3.17;;;13.50;99.90;;;;;;5054721;28;20032;-70
2022/06/10 04:37:25;;;;;;;10.15;3.70;;;13.40;99.90;;;;;;5068956;28;20039;-72
2022/06/10 04:39:52;;;;;;;8.93;3.15;;;13.50;99.90;;;;;;5051869;28;20449;-71
2022/06/10 04:42:17;;;;;;;19.98;5.60;;;;;;;;;;5053390;28;20403;-69
2022/06/10 04:44:43;;;;;;;11.02;2.80;;;13.40;99.90;;;;;;5053184;28;20040;-69
2022/06/10 04:47:09;;;;;;;9.73;3.15;;;13.80;99.90;;;;;;5053758;28;20064;-69
2022/06/10 04:49:36;;;;;;;11.30;2.95;;;13.70;99.90;;;;;;5048390;28;20037;-71
2022/06/10 04:52:05;;;;;;;10.20;3.08;;;13.90;99.90;;;;;;5053240;28;20040;-70
2022/06/10 04:54:31;;;;;;;14.98;3.65;;;;;;;;;;5053176;28;20155;-70
2022/06/10 04:56:56;;;;;;;8.13;3.15;;;14.00;99.90;;;;;;5074215;28;20072;-72
2022/06/10 04:59:22;;;;;;;11.57;3.00;;;;;;;;;;5056067;28;20037;-69
2022/06/10 05:01:49;;;;;;;11.35;3.40;;;14.00;99.90;;;;;;5092261;28;20044;-69
2022/06/10 05:04:15;;;;;;;11.93;4.07;;;;;;;;;;5070174;28;20051;-70
2022/06/10 05:06:41;;;;;;;11.13;3.17;;;14.00;99.90;;;;;;5071509;28;20414;-69
2022/06/10 05:09:07;;;;;;;8.52;3.28;;;;;;;;;;5054305;28;20041;-69
2022/06/10 05:11:33;;;;;;;8.88;2.97;;;;;;;;;;5063238;28;20102;-70
2022/06/10 05:13:58;;;;;;;8.43;4.00;;;14.10;99.90;;;;;;5062363;28;20032;-69
2022/06/10 05:16:27;;;;;;;5.93;2.80;;;;;;;;;;5069363;28;20046;-70
2022/06/10 05:18:53;;;;;;;7.70;2.67;;;14.20;99.90;;;;;;5071598;28;20052;-67
2022/06/10 05:21:19;;;;;;;14.07;4.15;;;14.30;99.90;;;;;;5071944;28;20045;-69
2022/06/10 05:23:45;;;;;;;10.07;3.72;;;14.50;99.90;;;;;;5062653;28;20507;-69
2022/06/10 05:26:12;;;;;;;11.88;3.42;;;14.60;99.90;;;;;;5031964;28;20434;-69
2022/06/10 05:28:38;;;;;;;10.32;3.45;;;14.50;99.90;;;;;;5052014;28;20037;-68
2022/06/10 05:31:04;;;;;;;14.43;3.75;;;;;;;;;;5063328;28;20621;-69
2022/06/10 05:36:14;;;;;;;10.25;2.80;;;14.70;99.90;;;;;;5092064;28;20044;-69
2022/06/10 05:38:40;;;;;;;12.05;4.28;;;;;;;;;;5092234;28;20123;-69
2022/06/10 05:43:51;;;;;;;21.63;4.55;;;;;;;;;;5053377;28;20598;-69
2022/06/10 05:46:16;;;;;;;20.67;4.00;;;14.70;99.90;;;;;;5071482;28;20410;-69
2022/06/10 05:48:44;;;;;;;16.13;4.82;;;14.60;99.90;;;;;;5071738;28;20037;-69
2022/06/10 05:51:11;;;;;;;17.33;4.32;;;14.60;99.90;;;;;;5052890;28;20040;-69
2022/06/10 05:53:37;;;;;;;15.75;4.38;;;14.50;99.90;;;;;;5071625;28;20047;-69
2022/06/10 05:56:03;;;;;;;11.18;3.78;;;14.60;99.90;;;;;;5053269;28;20147;-68
2022/06/10 05:58:30;;;;;;;14.20;4.85;;;;;;;;;;5051407;28;20127;-69
2022/06/10 06:00:55;;;;;;;14.60;4.03;;;14.60;99.90;;;;;;5032864;28;20055;-69
2022/06/10 06:03:22;;;;;;;13.82;3.88;;;;;;;;;;5033414;28;20045;-69
2022/06/10 06:05:48;;;;;;;16.80;4.57;;;;;;;;;;5071417;28;20044;-69
2022/06/10 06:08:14;;;;;;;14.20;4.25;;;;;;;;;;5091350;28;20036;-70
2022/06/10 06:10:39;;;;;;;13.82;4.57;;;14.70;99.90;;;;;;5072364;28;20082;-69
2022/06/10 06:13:06;;;;;;;10.50;4.30;;;14.80;99.90;;;;;;5091625;28;20048;-71
2022/06/10 06:15:32;;;;;;;15.27;4.97;;;14.80;99.90;;;;;;5073223;28;20119;-70
2022/06/10 06:17:58;;;;;;;13.68;4.50;;;;;;;;;;5091314;28;20128;-68
2022/06/10 06:20:25;;;;;;;11.18;4.38;;;;;;;;;;5061003;28;20058;-69
2022/06/10 06:22:52;;;;;;;14.50;4.80;;;14.80;99.90;;;;;;5060672;28;20041;-69
2022/06/10 06:25:18;;;;;;;16.63;4.95;;;;;;;;;;5059258;28;20431;-68
2022/06/10 06:27:46;;;;;;;13.13;5.25;;;14.90;99.90;;;;;;5052027;28;20053;-71
2022/06/10 06:30:19;;;;;;;16.85;5.10;;;14.80;99.90;;;;;;5013564;28;20040;-68
2022/06/10 06:32:45;;;;;;;12.60;4.75;;;15.00;99.90;;;;;;5070206;28;20494;-69
2022/06/10 06:35:11;;;;;;;14.25;4.75;;;15.00;99.90;;;;;;5061047;28;20047;-69
2022/06/10 06:37:38;;;;;;;29.20;5.13;;;15.00;99.90;;;;;;5067182;28;20123;-70
2022/06/10 06:40:04;;;;;;;16.02;4.85;;;;;;;;;;5061602;28;20103;-69
2022/06/10 06:42:30;;;;;;;15.77;4.97;;;;;;;;;;5048440;28;20044;-71
2022/06/10 06:44:56;;;;;;;13.23;4.72;;;;;;;;;;5062865;28;20105;-70
2022/06/10 06:47:22;;;;;;;13.95;4.55;;;;;;;;;;5058725;28;20043;-69
2022/06/10 06:49:48;;;;;;;15.93;5.10;;;;;;;;;;5068322;28;20497;-69
2022/06/10 06:52:14;;;;;;;11.10;4.55;;;;;;;;;;5089229;28;20086;-67
2022/06/10 06:54:40;;;;;;;10.02;5.07;;;15.20;99.90;;;;;;5072763;28;20079;-68
2022/06/10 06:57:06;;;;;;;15.77;4.78;;;;;;;;;;5090815;28;20090;-67
2022/06/10 06:59:33;;;;;;;17.00;5.80;;;15.40;99.90;;;;;;5090162;28;20044;-67
2022/06/10 07:01:59;;;;;;;15.43;5.35;;;;;;;;;;5067985;28;20045;-67
2022/06/10 07:04:25;;;;;;;17.70;5.18;;;;;;;;;;5051153;28;20049;-69
2022/06/10 07:06:51;;;;;;;12.63;5.80;;;15.50;99.90;;;;;;5032439;28;20486;-67
2022/06/10 07:09:16;;;;;;;12.32;5.90;;;15.50;99.90;;;;;;5049436;28;20094;-68
2022/06/10 07:11:42;;;;;;;15.40;6.43;;;15.70;99.90;;;;;;5032581;28;20040;-69
2022/06/10 07:14:08;;;;;;;15.35;6.03;;;15.70;99.90;;;;;;5050346;28;20098;-69
2022/06/10 07:16:33;;;;;;;13.32;5.60;;;15.70;99.90;;;;;;5050688;28;20036;-69
2022/06/10 07:18:59;;;;;;;17.08;6.88;;;;;;;;;;5050278;28;20045;-69
2022/06/10 07:21:27;;;;;;;12.63;5.78;;;;;;;;;;5032238;28;20064;-67
2022/06/10 07:23:53;;;;;;;15.52;6.18;;;;;;;;;;5033019;28;20049;-67
2022/06/10 07:26:19;;;;;;;16.25;6.25;;;15.90;99.90;;;;;;5049411;28;20406;-67
2022/06/10 07:28:44;;;;;;;13.55;5.53;;;15.90;99.90;;;;;;5068988;28;20090;-67
2022/06/10 07:31:11;;;;;;;12.60;5.85;;;;;;;;;;5050425;28;20067;-70
2022/06/10 07:33:36;;;;;;;14.38;5.50;;;15.80;99.90;;;;;;5050840;28;20029;-67
2022/06/10 07:36:05;;;;;;;10.63;5.40;;;15.70;99.90;;;;;;5065320;28;20040;-68
2022/06/10 07:38:31;;;;;;;9.93;5.07;;;15.90;99.90;;;;;;5034766;28;20040;-67
2022/06/10 07:43:43;;;;;;;15.82;5.90;;;15.80;99.90;;;;;;5095054;22;20482;-70
2022/06/10 07:46:12;;;;;;;8.85;4.95;;;15.90;99.90;;;;;;5090514;28;20493;-71
2022/06/10 07:48:38;;;;;;;16.48;6.15;;;16.00;99.90;;;;;;5071966;28;20047;-71
2022/06/10 07:51:04;;;;;;;14.55;6.65;;;15.90;99.90;;;;;;5071680;28;20040;-71
2022/06/10 07:53:30;;;;;;;15.95;6.38;;;15.70;99.90;;;;;;5073155;28;20044;-71
2022/06/10 07:55:56;;;;;;;15.43;6.78;;;16.10;99.90;;;;;;5076191;28;20131;-71
2022/06/10 07:58:24;;;;;;;15.13;7.72;;;;;;;;;;5076312;28;20047;-71
2022/06/10 08:00:51;;;;;;;17.50;7.25;;;15.80;99.90;;;;;;5075202;28;20050;-70
2022/06/10 08:03:17;;;;;;;18.80;7.15;;;15.90;99.90;;;;;;5063122;28;20054;-71
2022/06/10 08:05:43;;;;;;;17.38;7.57;;;16.00;99.90;;;;;;5103713;28;20040;-71
2022/06/10 08:08:14;;;;;;;11.25;7.72;;;15.70;99.90;;;;;;5086247;28;20032;-71
2022/06/10 08:10:39;;;;;;;17.08;7.47;;;16.00;99.90;;;;;;5079581;28;20044;-71
2022/06/10 08:13:06;;;;;;;16.90;6.80;;;15.90;99.90;;;;;;5079726;28;20130;-71
2022/06/10 08:15:32;;;;;;;19.48;8.18;;;16.10;99.90;;;;;;5083028;28;20122;-70
2022/06/10 08:17:58;;;;;;;18.92;7.45;;;16.20;99.90;;;;;;5075216;28;20044;-71
2022/06/10 08:23:17;;;;;;;13.23;5.95;;;16.10;99.90;;;;;;5076128;28;20074;-70
2022/06/10 08:25:43;;;;;;;12.70;5.47;;;16.30;99.90;;;;;;5094229;28;20083;-71
2022/06/10 08:28:10;;;;;;;15.07;6.28;;;16.40;99.90;;;;;;5075966;28;20040;-71
2022/06/10 08:30:36;;;;;;;13.70;5.18;;;16.30;99.90;;;;;;5092556;28;20399;-71
2022/06/10 08:33:04;;;;;;;14.30;5.93;;;16.40;99.90;;;;;;5075784;28;20031;-71
2022/06/10 08:35:31;;;;;;;16.60;6.75;;;16.50;99.90;;;;;;5071195;28;20126;-71
2022/06/10 08:37:58;;;;;;;14.70;6.07;;;;;;;;;;5089040;28;20460;-71
2022/06/10 08:40:48;;;;;;;13.73;6.30;;;16.80;99.90;;;;;;5071597;28;20179;-70
2022/06/10 08:43:43;;;;;;;14.90;6.55;;;17.00;99.90;;;;;;5071311;28;20040;-70
2022/06/10 08:46:19;;;;;;;15.80;7.35;;;17.00;99.90;;;;;;5061223;28;20133;-71
2022/06/10 08:49:10;;;;;;;16.20;6.28;;;17.00;99.90;;;;;;5072685;28;20575;-71
2022/06/10 08:52:13;;;;;;;13.65;6.82;;;17.00;99.90;;;;;;5054303;28;20047;-71
2022/06/10 08:54:47;;;;;;;9.35;4.63;;;17.10;99.90;;;;;;5082221;28;20039;-71
2022/06/10 08:57:32;;;;;;;14.20;5.82;;;17.10;99.90;;;;;;5073620;28;20050;-71
2022/06/10 09:00:00;;;;;;;15.50;7.13;;;17.20;99.90;;;;;;5077832;28;20039;-72
2022/06/10 09:02:46;;;;;;;16.60;6.75;;;17.10;99.90;;;;;;5074133;28;20048;-71
2022/06/10 09:05:12;;;;;;;14.07;6.07;;;17.00;99.90;;;;;;5089153;28;20553;-71
2022/06/10 09:07:42;;;;;;;12.68;5.63;;;17.30;99.90;;;;;;5084498;28;20029;-71
2022/06/10 09:10:17;;;;;;;19.85;6.32;;;17.50;99.90;;;;;;5070946;28;20036;-70
2022/06/10 09:13:05;;;;;;;9.77;5.85;;;17.80;99.90;;;;;;5068985;28;20039;-70
2022/06/10 09:15:34;;;;;;;11.40;5.63;;;17.90;99.90;;;;;;5070494;28;20040;-70
2022/06/10 09:18:10;;;;;;;15.60;5.70;;;17.90;99.90;;;;;;5083788;28;20036;-70
2022/06/10 09:20:49;;;;;;;11.20;5.28;;;18.10;99.90;;;;;;5066261;28;20089;-70
2022/06/10 09:23:19;;;;;;;15.43;6.35;;;17.90;99.90;;;;;;5071998;28;20113;-71
2022/06/10 09:25:47;;;;;;;14.88;5.95;;;18.00;99.90;;;;;;5071152;28;20172;-70
2022/06/10 09:28:13;;;;;;;15.20;5.97;;;18.70;99.90;;;;;;5072833;28;20055;-71
2022/06/10 09:30:45;;;;;;;17.40;6.78;;;18.30;99.90;;;;;;5054977;28;20090;-68
2022/06/10 09:33:29;;;;;;;12.02;6.05;;;18.30;99.90;;;;;;5082044;28;20036;-70
2022/06/10 09:36:08;;;;;;;16.88;7.25;;;18.20;99.90;;;;;;5086306;28;20093;-70
2022/06/10 09:38:46;;;;;;;21.40;7.90;;;18.10;99.90;;;;;;5084413;28;20566;-70
2022/06/10 09:41:37;;;;;;;20.48;7.18;;;18.20;99.90;;;;;;5071869;28;20063;-71
2022/06/10 09:44:12;;;;;;;15.93;5.90;;;18.10;99.90;;;;;;5073090;28;20050;-70
2022/06/10 09:47:28;;;;;;;17.10;6.55;;;18.20;99.90;;;;;;5092008;28;20066;-70
2022/06/10 09:50:13;;;;;;;18.30;6.25;;;17.90;99.90;;;;;;5072873;28;20035;-70
2022/06/10 09:52:50;;;;;;;18.13;6.78;;;18.20;99.90;;;;;;5073419;28;20066;-69
2022/06/10 09:55:44;;;;;;;15.40;6.28;;;18.20;99.90;;;;;;5074020;28;20043;-70
2022/06/10 09:58:38;;;;;;;14.20;6.13;;;18.30;99.90;;;;;;5064923;28;20109;-70
2022/06/10 10:01:27;;;;;;;13.68;5.90;;;18.20;99.90;;;;;;5036338;28;20173;-68
2022/06/10 10:04:16;;;;;;;14.80;5.75;;;18.20;99.90;;;;;;5056676;28;20031;-71
2022/06/10 10:07:03;;;;;;;13.05;5.93;;;18.00;99.90;;;;;;5073691;28;20040;-70
2022/06/10 10:10:02;;;;;;;15.20;6.10;;;18.10;99.90;;;;;;5070005;28;20123;-69
2022/06/10 10:12:45;;;;;;;14.88;6.65;;;18.20;99.90;;;;;;5084098;28;20127;-70
2022/06/10 10:15:25;;;;;;;11.65;5.93;;;17.90;99.90;;;;;;5055592;28;20044;-69
2022/06/10 10:18:08;;;;;;;16.17;6.22;;;18.10;99.90;;;;;;5069985;28;20136;-70
2022/06/10 10:21:22;;;;;;;12.70;5.88;;;18.00;99.90;;;;;;5069241;28;20036;-70
2022/06/10 10:23:51;;;;;;;10.77;5.32;;;18.10;99.90;;;;;;4999194;28;20046;-70
2022/06/10 10:26:38;;;;;;;14.70;5.38;;;18.40;99.90;;;;;;5069090;28;20135;-70
2022/06/10 10:29:11;;;;;;;12.95;4.90;;;18.40;99.90;;;;;;5068985;28;20044;-70
2022/06/10 10:31:59;;;;;;;10.70;5.30;;;18.70;99.90;;;;;;5068409;28;20032;-70
2022/06/10 10:34:32;;;;;;;11.68;5.00;;;18.10;99.90;;;;;;5072217;28;20040;-71
2022/06/10 10:37:00;;;;;;;9.18;5.80;;;19.60;99.90;;;;;;5073187;28;20047;-70
2022/06/10 10:39:32;;;;;;;11.82;6.30;;;18.20;99.90;;;;;;5072139;28;20431;-69
2022/06/10 10:42:06;;;;;;;15.00;6.83;;;18.20;99.90;;;;;;5054346;28;20062;-70
2022/06/10 10:44:32;;;;;;;13.15;6.03;;;18.00;99.90;;;;;;5055916;28;20118;-70
2022/06/10 10:47:10;;;;;;;12.00;6.15;;;18.30;99.90;;;;;;5056208;28;20071;-70
2022/06/10 10:49:58;;;;;;;17.55;6.55;;;19.50;99.90;;;;;;5053234;28;20036;-71
2022/06/10 10:52:42;;;;;;;14.55;6.13;;;18.50;99.90;;;;;;5090457;28;20047;-72
2022/06/10 10:55:13;;;;;;;10.80;6.38;;;18.60;99.90;;;;;;5090772;28;20548;-71
2022/06/10 10:58:02;;;;;;;8.23;5.43;;;18.60;99.90;;;;;;5067837;28;20048;-69
2022/06/10 11:00:43;;;;;;;10.02;5.63;;;18.70;99.90;;;;;;5073065;28;20036;-69
2022/06/10 11:03:22;;;;;;;13.32;6.13;;;18.80;99.90;;;;;;5059719;28;20040;-69
2022/06/10 11:05:49;;;;;;;11.38;7.35;;;19.20;99.90;;;;;;5075811;28;20043;-70
2022/06/10 11:08:20;;;;;;;17.83;7.18;;;19.90;99.90;;;;;;5076267;28;20066;-70
2022/06/10 11:11:09;;;;;;;14.00;7.45;;;19.30;99.90;;;;;;5080346;28;20689;-70
2022/06/10 11:13:46;;;;;;;16.30;6.97;;;19.50;99.90;;;;;;5073484;28;20509;-70
2022/06/10 11:16:26;;;;;;;11.40;6.20;;;19.50;99.90;;;;;;5051957;28;20111;-70
2022/06/10 11:18:54;;;;;;;11.48;6.38;;;19.60;99.90;;;;;;5077829;28;20629;-71
2022/06/10 11:21:25;;;;;;;13.68;6.60;;;19.80;99.90;;;;;;5096440;28;20040;-70
2022/06/10 11:23:55;;;;;;;14.68;6.57;;;19.30;99.90;;;;;;5095484;28;20086;-70
2022/06/10 11:26:22;;;;;;;10.40;5.55;;;19.10;99.90;;;;;;5079744;28;20039;-70
2022/06/10 11:28:57;;;;;;;10.25;5.53;;;19.00;99.90;;;;;;5079423;28;20401;-70
2022/06/10 11:31:39;;;;;;;11.43;5.38;;;20.10;99.90;;;;;;5075572;28;20493;-71
2022/06/10 11:34:05;;;;;;;9.10;5.25;;;19.10;99.90;;;;;;5075720;28;20040;-71
2022/06/10 11:36:47;;;;;;;13.23;5.82;;;19.10;99.90;;;;;;5094553;28;20129;-71
2022/06/10 11:39:27;;;;;;;10.43;5.25;;;19.50;99.90;;;;;;5075542;28;20404;-71
2022/06/10 11:42:00;;;;;;;11.63;5.25;;;19.30;99.90;;;;;;5094118;28;20036;-71
2022/06/10 11:44:31;;;;;;;9.70;4.68;;;21.00;99.90;;;;;;5093619;28;20575;-72
2022/06/10 11:47:38;;;;;;;8.93;4.97;;;20.80;99.90;;;;;;5076076;28;20040;-71
2022/06/10 11:50:34;;;;;;;10.52;5.32;;;19.40;99.90;;;;;;5072854;28;20055;-71
2022/06/10 11:53:23;;;;;;;17.48;6.15;;;19.80;99.90;;;;;;5056197;28;20044;-71
2022/06/10 11:59:42;;;;;;;10.98;5.60;;;20.10;99.90;;;;;;5044954;28;20052;-71
2022/06/10 12:01:33;;;;;;;10.88;6.43;;;20.30;99.90;;;;;;5071157;28;20512;-71
2022/06/10 12:04:14;;;;;;;15.00;5.15;;;20.90;99.90;;;;;;5065216;28;20040;-71
2022/06/10 12:06:59;;;;;;;8.60;4.40;;;20.60;99.90;;;;;;5055421;28;20037;-71
2022/06/10 12:09:49;;;;;;;9.15;3.70;;;21.10;99.90;;;;;;5054351;28;20033;-70
2022/06/10 12:12:20;;;;;;;8.65;3.50;;;20.60;99.90;;;;;;5038708;28;20490;-72
2022/06/10 12:14:53;;;;;;;7.97;3.22;;;21.20;99.90;;;;;;5055813;28;20056;-71
2022/06/10 12:17:31;;;;;;;9.23;3.67;;;22.00;99.90;;;;;;5073459;28;20041;-72
2022/06/10 12:20:06;;;;;;;7.75;3.88;;;20.80;99.90;;;;;;5054513;28;20040;-72
2022/06/10 12:22:34;;;;;;;9.23;3.72;;;21.10;99.90;;;;;;5090138;28;20032;-72
2022/06/10 12:25:00;;;;;;;6.68;2.78;;;22.50;99.90;;;;;;5090908;28;20053;-72
2022/06/10 12:27:35;;;;;;;4.13;2.72;;;21.30;99.90;;;;;;5072127;28;20105;-72
2022/06/10 12:30:14;;;;;;;7.70;2.40;;;21.30;99.90;;;;;;5071782;28;20051;-71
2022/06/10 12:32:58;;;;;;;4.47;2.03;;;20.80;99.90;;;;;;5071091;28;20029;-72
2022/06/10 12:35:34;;;;;;;3.90;2.30;;;20.40;99.90;;;;;;5057770;28;20494;-72
2022/06/10 12:38:20;;;;;;;5.63;2.47;;;21.90;99.90;;;;;;5075268;28;20089;-72
2022/06/10 12:41:05;;;;;;;5.63;2.22;;;20.60;99.90;;;;;;5057491;28;20059;-72
2022/06/10 12:43:36;;;;;;;5.32;2.30;;;20.40;99.90;;;;;;5075555;28;20044;-71
2022/06/10 12:46:26;;;;;;;2.55;1.95;;;22.00;99.90;;;;;;5074535;28;20051;-71
2022/06/10 12:48:52;;;;;;;6.45;2.10;;;20.80;99.90;;;;;;5093121;28;20040;-71
2022/06/10 12:51:38;;;;;;;4.20;2.00;;;21.70;99.90;;;;;;5075691;28;20101;-72
2022/06/10 12:54:10;;;;;;;7.70;2.28;;;21.40;99.90;;;;;;5093541;28;20453;-71
2022/06/10 12:56:37;;;;;;;8.52;2.10;;;21.20;99.90;;;;;;5075331;28;20097;-71
2022/06/10 12:59:06;;;;;;;9.95;2.28;;;21.20;99.90;;;;;;5074878;28;20474;-71
2022/06/10 13:01:32;;;;;;;4.95;2.03;;;20.90;99.90;;;;;;5074203;28;20078;-71
2022/06/10 13:04:11;;;;;;;6.18;1.50;;;20.70;99.90;;;;;;5058001;28;20397;-71
2022/06/10 13:06:43;;;;;;;8.02;2.22;;;20.80;99.90;;;;;;5082497;28;20086;-71
2022/06/10 13:09:15;;;;;;;7.30;1.88;;;21.10;99.90;;;;;;5056689;28;20032;-71
2022/06/10 13:12:02;;;;;;;7.93;1.98;;;21.20;99.90;;;;;;5073103;28;20517;-72
2022/06/10 13:14:33;;;;;;;8.45;1.75;;;21.40;99.90;;;;;;5071239;28;20051;-71
2022/06/10 13:16:58;;;;;;;9.18;1.88;;;22.80;99.90;;;;;;5085496;28;20045;-71
2022/06/10 13:19:33;;;;;;;5.82;2.00;;;23.20;99.90;;;;;;5071147;28;20059;-71
2022/06/10 13:22:18;;;;;;;4.05;2.30;;;21.20;99.90;;;;;;5072359;28;20060;-71
2022/06/10 13:25:04;;;;;;;6.88;1.92;;;21.60;99.90;;;;;;5071667;28;20040;-71
2022/06/10 13:27:48;;;;;;;7.55;2.58;;;22.60;99.90;;;;;;5054497;28;20113;-71
2022/06/10 13:30:25;;;;;;;3.97;1.58;;;21.60;99.90;;;;;;5071905;28;20033;-71
2022/06/10 13:33:09;;;;;;;6.88;2.10;;;21.70;99.90;;;;;;5054739;28;20040;-71
2022/06/10 13:35:48;;;;;;;8.82;2.00;;;21.50;99.90;;;;;;5038012;28;20119;-71
2022/06/10 13:38:24;;;;;;;7.13;2.17;;;22.10;99.90;;;;;;5054465;28;20047;-71
2022/06/10 13:41:48;;;;;;;10.15;2.60;;;21.30;99.90;;;;;;5079637;28;20070;-71
2022/06/10 13:43:43;;;;;;;7.93;2.03;;;21.50;99.90;;;;;;5072580;28;20040;-71